Time;durP1;ratioP1;P1;durP2;ratioP2;P2;SDS_P1;SDS_P2;PMS_P1;PMS_P2;Temp;Humidity;BMP_temperature;BMP_pressure;BME280_temperature;BME280_humidity;BME280_pressure;Samples;Min_cycle;Max_cycle;Signal;HPM_P1;HPM_P2
2023/07/21 00:01:23;;;;;;;2.70;1.60;;;;;;;;;;5124897;27;20039;-73
2023/07/21 00:03:50;;;;;;;1.88;1.48;;;;;;;;;;5120403;27;20059;-73
2023/07/21 00:06:19;;;;;;;2.00;1.40;;;;;;;;;;5127938;27;20046;-73
2023/07/21 00:08:46;;;;;;;2.22;1.67;;;;;;;;;;5146974;27;20484;-73
2023/07/21 00:11:15;;;;;;;2.05;1.67;;;;;;;;;;5140362;27;20042;-73
2023/07/21 00:13:42;;;;;;;2.97;1.50;;;;;;;;;;5123386;27;20086;-73
2023/07/21 00:16:09;;;;;;;2.42;1.40;;;;;;;;;;5124668;27;20059;-73
2023/07/21 00:18:37;;;;;;;2.05;1.50;;;;;;;;;;5141287;27;20061;-73
2023/07/21 00:21:05;;;;;;;1.70;1.10;;;;;;;;;;5134904;27;20043;-73
2023/07/21 00:23:32;;;;;;;2.90;1.40;;;;;;;;;;5128782;27;20123;-73
2023/07/21 00:26:00;;;;;;;1.58;1.27;;;;;;;;;;5139984;27;20043;-73
2023/07/21 00:28:29;;;;;;;2.10;1.30;;;;;;;;;;5124153;27;20074;-73
2023/07/21 00:30:57;;;;;;;2.47;1.25;;;;;;;;;;5128279;27;20362;-73
2023/07/21 00:33:25;;;;;;;1.60;1.00;;;;;;;;;;5120682;27;20054;-73
2023/07/21 00:35:52;;;;;;;2.00;1.30;;;;;;;;;;5132455;27;20051;-73
2023/07/21 00:38:21;;;;;;;2.08;1.50;;;;;;;;;;5123151;27;20039;-74
2023/07/21 00:40:48;;;;;;;2.42;1.40;;;;;;;;;;5146636;27;20198;-73
2023/07/21 00:43:17;;;;;;;4.03;1.50;;;;;;;;;;5129491;27;20062;-73
2023/07/21 00:45:47;;;;;;;1.88;1.15;;;;;;;;;;5130111;27;20054;-73
2023/07/21 00:48:15;;;;;;;2.70;1.42;;;;;;;;;;5126996;27;20043;-73
2023/07/21 00:50:43;;;;;;;2.72;1.60;;;;;;;;;;5143064;27;20047;-73
2023/07/21 00:53:12;;;;;;;2.35;1.40;;;;;;;;;;5133445;27;20054;-73
2023/07/21 00:55:39;;;;;;;2.28;1.60;;;;;;;;;;5120361;27;20501;-73
2023/07/21 00:58:07;;;;;;;4.60;1.60;;;;;;;;;;5143112;27;20133;-73
2023/07/21 01:00:34;;;;;;;2.28;1.63;;;;;;;;;;5127623;27;20509;-73
2023/07/21 01:03:03;;;;;;;3.03;1.48;;;;;;;;;;5130230;27;20074;-73
2023/07/21 01:05:32;;;;;;;2.65;1.65;;;;;;;;;;5122635;27;20058;-73
2023/07/21 01:07:59;;;;;;;3.05;1.88;;;;;;;;;;5124600;27;20080;-73
2023/07/21 01:10:27;;;;;;;3.55;2.10;;;;;;;;;;5129301;27;20126;-73
2023/07/21 01:12:54;;;;;;;3.40;1.80;;;;;;;;;;5143751;27;20382;-73
2023/07/21 01:15:21;;;;;;;3.45;1.92;;;;;;;;;;5127429;27;20080;-73
2023/07/21 01:17:51;;;;;;;4.47;1.90;;;;;;;;;;5126196;27;20045;-73
2023/07/21 01:20:22;;;;;;;2.47;1.80;;;;;;;;;;5147690;27;20107;-73
2023/07/21 01:22:51;;;;;;;3.42;2.30;;;;;;;;;;5140599;27;20494;-73
2023/07/21 01:25:20;;;;;;;3.33;1.92;;;;;;;;;;5150035;27;20916;-73
2023/07/21 01:27:50;;;;;;;4.40;2.03;;;;;;;;;;5125747;27;20405;-73
2023/07/21 01:30:19;;;;;;;2.83;1.90;;;;;;;;;;5149016;27;20043;-73
2023/07/21 01:32:47;;;;;;;2.75;2.03;;;;;;;;;;5128547;27;20490;-73
2023/07/21 01:35:17;;;;;;;4.40;1.92;;;;;;;;;;5143341;27;20039;-73
2023/07/21 01:37:46;;;;;;;2.78;1.98;;;;;;;;;;5142277;27;20047;-73
2023/07/21 01:40:15;;;;;;;4.05;2.13;;;;;;;;;;5127622;27;20058;-73
2023/07/21 01:42:44;;;;;;;3.67;2.20;;;;;;;;;;5128702;27;20108;-73
2023/07/21 01:45:11;;;;;;;4.93;2.05;;;;;;;;;;5125391;27;20042;-73
2023/07/21 01:47:38;;;;;;;3.20;1.90;;;;;;;;;;5125091;27;20161;-73
2023/07/21 01:50:08;;;;;;;2.97;1.88;;;;;;;;;;5146046;27;20050;-73
2023/07/21 01:52:36;;;;;;;6.47;1.90;;;;;;;;;;5128687;27;20174;-73
2023/07/21 01:55:06;;;;;;;4.18;2.28;;;;;;;;;;5143913;27;20047;-73
2023/07/21 01:57:35;;;;;;;3.30;1.90;;;;;;;;;;5119481;27;20062;-74
2023/07/21 02:00:06;;;;;;;4.43;2.20;;;;;;;;;;5120350;27;20047;-74
2023/07/21 02:02:34;;;;;;;2.92;2.03;;;;;;;;;;5142513;27;20474;-73
2023/07/21 02:05:01;;;;;;;3.35;1.92;;;;;;;;;;5125293;27;20079;-73
2023/07/21 02:07:29;;;;;;;4.05;1.75;;;;;;;;;;5127858;27;20058;-74
2023/07/21 02:09:56;;;;;;;3.10;1.85;;;;;;;;;;5124939;27;20349;-73
2023/07/21 02:12:23;;;;;;;4.60;2.70;;;;;;;;;;5123391;27;20051;-73
2023/07/21 02:14:50;;;;;;;4.30;2.22;;;;;;;;;;5126466;27;21255;-74
2023/07/21 02:17:19;;;;;;;3.90;1.90;;;;;;;;;;5128381;27;20786;-74
2023/07/21 02:19:46;;;;;;;3.83;1.95;;;;;;;;;;5130155;27;20050;-74
2023/07/21 02:22:13;;;;;;;4.88;2.53;;;;;;;;;;5147310;27;20891;-74
2023/07/21 02:24:41;;;;;;;3.80;2.28;;;;;;;;;;5124906;27;20050;-74
2023/07/21 02:27:09;;;;;;;4.22;2.25;;;;;;;;;;5116042;27;20039;-71
2023/07/21 02:29:36;;;;;;;3.92;2.00;;;;;;;;;;5140216;27;20106;-71
2023/07/21 02:32:03;;;;;;;5.78;2.10;;;;;;;;;;5127426;27;20057;-71
2023/07/21 02:34:32;;;;;;;5.07;2.20;;;;;;;;;;5120781;27;20058;-71
2023/07/21 02:36:59;;;;;;;6.20;2.00;;;;;;;;;;5145194;27;20486;-71
2023/07/21 02:39:27;;;;;;;3.80;2.17;;;;;;;;;;5126980;27;20063;-71
2023/07/21 02:41:56;;;;;;;4.78;2.15;;;;;;;;;;5127021;27;20198;-71
2023/07/21 02:44:23;;;;;;;4.38;2.60;;;;;;;;;;5130176;27;20065;-71
2023/07/21 02:46:50;;;;;;;3.42;2.17;;;;;;;;;;5121717;27;20413;-71
2023/07/21 02:49:17;;;;;;;3.15;2.03;;;;;;;;;;5121488;27;20050;-71
2023/07/21 02:51:46;;;;;;;3.67;2.58;;;;;;;;;;5127713;27;20057;-71
2023/07/21 02:54:13;;;;;;;5.57;2.38;;;;;;;;;;5144891;27;20537;-71
2023/07/21 02:56:41;;;;;;;3.10;2.22;;;;;;;;;;5141971;27;20057;-71
2023/07/21 02:59:09;;;;;;;6.97;2.20;;;;;;;;;;5124332;27;20039;-70
2023/07/21 03:01:36;;;;;;;4.38;2.70;;;;;;;;;;5123894;27;20055;-70
2023/07/21 03:04:03;;;;;;;4.22;2.67;;;;;;;;;;5139909;27;20054;-71
2023/07/21 03:06:32;;;;;;;5.00;2.60;;;;;;;;;;5141707;27;20057;-71
2023/07/21 03:09:03;;;;;;;4.15;2.63;;;;;;;;;;5124499;27;20100;-71
2023/07/21 03:11:30;;;;;;;4.35;2.63;;;;;;;;;;5117917;27;20108;-71
2023/07/21 03:13:57;;;;;;;5.28;3.20;;;;;;;;;;5123251;27;20043;-71
2023/07/21 03:16:25;;;;;;;4.20;3.05;;;;;;;;;;5148215;27;20050;-71
2023/07/21 03:18:52;;;;;;;5.50;3.15;;;;;;;;;;5136873;27;20078;-71
2023/07/21 03:21:19;;;;;;;5.45;3.30;;;;;;;;;;5141401;27;20049;-71
2023/07/21 03:23:47;;;;;;;5.45;3.45;;;;;;;;;;5141019;27;20050;-71
2023/07/21 03:26:16;;;;;;;4.93;3.42;;;;;;;;;;5124207;27;20053;-71
2023/07/21 03:28:43;;;;;;;4.85;2.97;;;;;;;;;;5119905;27;20057;-71
2023/07/21 03:31:11;;;;;;;5.07;2.85;;;;;;;;;;5146932;27;20172;-70
2023/07/21 03:33:39;;;;;;;4.47;2.78;;;;;;;;;;5140959;27;20138;-71
2023/07/21 03:36:06;;;;;;;5.20;3.15;;;;;;;;;;5129163;27;20062;-71
2023/07/21 03:38:35;;;;;;;8.27;3.03;;;;;;;;;;5114808;27;20055;-71
2023/07/21 03:41:03;;;;;;;4.38;3.05;;;;;;;;;;5141911;27;20106;-71
2023/07/21 03:43:32;;;;;;;4.63;3.10;;;;;;;;;;5128053;27;20086;-71
2023/07/21 03:45:59;;;;;;;4.53;2.63;;;;;;;;;;5129367;27;20070;-70
2023/07/21 03:48:26;;;;;;;4.55;2.42;;;;;;;;;;5113742;27;20044;-71
2023/07/21 03:50:57;;;;;;;6.65;2.70;;;;;;;;;;5139006;27;20135;-71
2023/07/21 03:53:25;;;;;;;5.13;2.88;;;;;;;;;;5135448;27;20101;-71
2023/07/21 03:55:52;;;;;;;3.47;2.53;;;;;;;;;;5124556;27;20046;-71
2023/07/21 03:58:19;;;;;;;4.28;2.35;;;;;;;;;;5141380;27;20054;-71
2023/07/21 04:00:48;;;;;;;4.00;2.35;;;;;;;;;;5122552;27;20058;-71
2023/07/21 04:03:17;;;;;;;6.63;2.60;;;;;;;;;;5137028;27;20058;-71
2023/07/21 04:05:44;;;;;;;3.58;2.22;;;;;;;;;;5145599;27;20046;-70
2023/07/21 04:08:11;;;;;;;6.05;2.78;;;;;;;;;;5128333;27;20049;-71
2023/07/21 04:10:41;;;;;;;6.30;2.65;;;;;;;;;;5124261;27;20058;-71
2023/07/21 04:13:09;;;;;;;4.78;2.38;;;;;;;;;;5126740;27;20084;-71
2023/07/21 04:15:36;;;;;;;3.78;2.60;;;;;;;;;;5146577;27;20057;-71
2023/07/21 04:18:06;;;;;;;5.97;2.60;;;;;;;;;;5122425;27;20099;-71
2023/07/21 04:20:33;;;;;;;3.05;2.30;;;;;;;;;;5124708;27;20054;-71
2023/07/21 04:23:00;;;;;;;4.75;2.40;;;;;;;;;;5148488;27;20473;-71
2023/07/21 04:25:27;;;;;;;3.38;2.13;;;;;;;;;;5141359;27;20072;-71
2023/07/21 04:27:55;;;;;;;4.30;2.38;;;;;;;;;;5144978;27;20370;-71
2023/07/21 04:30:22;;;;;;;4.57;2.78;;;;;;;;;;5129506;27;20493;-71
2023/07/21 04:32:49;;;;;;;6.38;3.10;;;;;;;;;;5130844;27;20047;-71
2023/07/21 04:35:18;;;;;;;4.00;2.60;;;;;;;;;;5122548;27;20057;-71
2023/07/21 04:37:45;;;;;;;4.13;2.40;;;;;;;;;;5146448;27;20523;-70
2023/07/21 04:40:12;;;;;;;9.15;3.03;;;;;;;;;;5145297;27;20049;-71
2023/07/21 04:42:40;;;;;;;4.25;2.30;;;;;;;;;;5144440;27;20051;-71
2023/07/21 04:45:11;;;;;;;4.57;2.60;;;;;;;;;;5144205;27;20223;-71
2023/07/21 04:47:40;;;;;;;4.78;2.58;;;;;;;;;;5117174;27;20051;-70
2023/07/21 04:50:08;;;;;;;6.88;2.58;;;;;;;;;;5140651;27;20697;-71
2023/07/21 04:52:37;;;;;;;5.03;2.33;;;;;;;;;;5137264;27;20042;-71
2023/07/21 04:55:05;;;;;;;4.00;2.38;;;;;;;;;;5127806;27;20066;-71
2023/07/21 04:57:34;;;;;;;5.57;2.72;;;;;;;;;;5125268;27;20050;-71
2023/07/21 05:00:01;;;;;;;2.85;1.67;;;;;;;;;;5121603;27;20046;-70
2023/07/21 05:02:29;;;;;;;3.10;2.10;;;;;;;;;;5136658;27;20084;-71
2023/07/21 05:04:58;;;;;;;3.38;2.20;;;;;;;;;;5124657;27;20055;-71
2023/07/21 05:07:26;;;;;;;4.80;2.42;;;;;;;;;;5130394;27;20055;-71
2023/07/21 05:09:55;;;;;;;3.38;2.15;;;;;;;;;;5141827;27;20051;-71
2023/07/21 05:12:24;;;;;;;5.20;2.53;;;;;;;;;;5130207;27;20095;-71
2023/07/21 05:14:51;;;;;;;4.63;2.40;;;;;;;;;;5137646;27;20054;-71
2023/07/21 05:17:19;;;;;;;4.57;2.33;;;;;;;;;;5141855;27;20051;-71
2023/07/21 05:19:47;;;;;;;3.97;2.40;;;;;;;;;;5130057;27;20058;-70
2023/07/21 05:22:15;;;;;;;4.43;2.72;;;;;;;;;;5146502;27;20049;-71
2023/07/21 05:24:42;;;;;;;5.30;2.50;;;;;;;;;;5139121;27;20049;-71
2023/07/21 05:27:11;;;;;;;4.70;2.33;;;;;;;;;;5142999;27;20062;-71
2023/07/21 05:29:38;;;;;;;4.65;2.47;;;;;;;;;;5142314;27;20055;-71
2023/07/21 05:32:06;;;;;;;3.72;2.28;;;;;;;;;;5120706;27;20042;-69
2023/07/21 05:34:33;;;;;;;6.20;2.80;;;;;;;;;;5120479;27;20055;-71
2023/07/21 05:37:00;;;;;;;3.67;2.28;;;;;;;;;;5140103;27;20095;-71
2023/07/21 05:39:31;;;;;;;4.65;2.22;;;;;;;;;;5144132;27;20061;-71
2023/07/21 05:41:59;;;;;;;3.97;2.50;;;;;;;;;;5122920;27;20074;-72
2023/07/21 05:44:30;;;;;;;4.82;2.47;;;;;;;;;;5119851;27;20138;-71
2023/07/21 05:46:58;;;;;;;5.82;2.60;;;;;;;;;;5148035;27;20047;-71
2023/07/21 05:49:25;;;;;;;5.57;2.80;;;;;;;;;;5128911;27;20039;-71
2023/07/21 05:51:53;;;;;;;3.63;2.50;;;;;;;;;;5130683;27;20572;-71
2023/07/21 05:54:20;;;;;;;5.13;2.40;;;;;;;;;;5138306;27;20067;-71
2023/07/21 05:56:47;;;;;;;4.47;2.47;;;;;;;;;;5148339;27;20046;-71
2023/07/21 05:59:15;;;;;;;3.92;2.53;;;;;;;;;;5119799;27;20043;-71
2023/07/21 06:01:43;;;;;;;3.70;2.30;;;;;;;;;;5141552;27;20134;-71
2023/07/21 06:04:11;;;;;;;3.10;1.98;;;;;;;;;;5142271;27;20042;-71
2023/07/21 06:06:39;;;;;;;3.95;2.28;;;;;;;;;;5143723;27;20058;-72
2023/07/21 06:09:06;;;;;;;3.25;1.95;;;;;;;;;;5146170;27;20489;-71
2023/07/21 06:11:33;;;;;;;3.80;2.00;;;;;;;;;;5142297;27;20046;-72
2023/07/21 06:14:01;;;;;;;3.65;1.92;;;;;;;;;;5129039;27;20428;-71
2023/07/21 06:16:28;;;;;;;2.95;1.80;;;;;;;;;;5118225;27;20055;-72
2023/07/21 06:18:56;;;;;;;3.38;1.88;;;;;;;;;;5125654;27;20057;-71
2023/07/21 06:21:24;;;;;;;3.50;1.95;;;;;;;;;;5126215;27;20058;-71
2023/07/21 06:23:51;;;;;;;2.28;1.60;;;;;;;;;;5147235;27;20057;-71
2023/07/21 06:26:18;;;;;;;4.32;2.10;;;;;;;;;;5118409;27;20505;-73
2023/07/21 06:28:46;;;;;;;3.67;2.00;;;;;;;;;;5113406;27;20047;-71
2023/07/21 06:31:14;;;;;;;4.22;1.75;;;;;;;;;;5120117;27;20497;-71
2023/07/21 06:33:41;;;;;;;4.13;2.08;;;;;;;;;;5141924;27;20046;-71
2023/07/21 06:36:10;;;;;;;4.05;1.80;;;;;;;;;;5131238;27;20061;-73
2023/07/21 06:38:37;;;;;;;2.45;1.77;;;;;;;;;;5127226;27;20470;-72
2023/07/21 06:41:05;;;;;;;5.47;2.00;;;;;;;;;;5129925;27;20400;-72
2023/07/21 06:43:32;;;;;;;6.20;1.90;;;;;;;;;;5142600;27;20054;-72
2023/07/21 06:46:00;;;;;;;4.18;2.00;;;;;;;;;;5122997;27;20658;-72
2023/07/21 06:48:27;;;;;;;4.22;2.55;;;;;;;;;;5120815;27;20079;-72
2023/07/21 06:50:56;;;;;;;3.03;2.13;;;;;;;;;;5143998;27;20432;-71
2023/07/21 06:53:25;;;;;;;3.17;2.00;;;;;;;;;;5124946;27;20047;-71
2023/07/21 06:55:54;;;;;;;5.40;2.30;;;;;;;;;;5137110;27;20049;-71
2023/07/21 06:58:22;;;;;;;2.60;1.90;;;;;;;;;;5126902;27;20435;-72
2023/07/21 07:00:50;;;;;;;3.72;1.70;;;;;;;;;;5122861;27;20051;-71
2023/07/21 07:03:17;;;;;;;4.95;2.20;;;;;;;;;;5117710;27;20405;-71
2023/07/21 07:05:46;;;;;;;3.08;1.83;;;;;;;;;;5130667;27;20413;-71
2023/07/21 07:08:13;;;;;;;3.90;2.10;;;;;;;;;;5144070;27;20508;-71
2023/07/21 07:10:42;;;;;;;4.28;1.98;;;;;;;;;;5139715;27;20050;-71
2023/07/21 07:13:09;;;;;;;2.42;1.98;;;;;;;;;;5123698;27;20046;-70
2023/07/21 07:15:36;;;;;;;3.60;2.38;;;;;;;;;;5146470;27;20047;-71
2023/07/21 07:18:04;;;;;;;2.95;1.90;;;;;;;;;;5142079;27;20460;-71
2023/07/21 07:20:32;;;;;;;3.05;1.60;;;;;;;;;;5122703;27;20094;-71
2023/07/21 07:22:59;;;;;;;2.95;1.77;;;;;;;;;;5145184;27;20805;-72
2023/07/21 07:25:26;;;;;;;4.75;2.20;;;;;;;;;;5136328;27;20508;-71
2023/07/21 07:27:55;;;;;;;2.60;1.63;;;;;;;;;;5144097;27;20043;-71
2023/07/21 07:30:22;;;;;;;2.55;1.50;;;;;;;;;;5116300;27;20043;-72
2023/07/21 07:32:50;;;;;;;2.33;1.55;;;;;;;;;;5120915;27;20050;-70
2023/07/21 07:35:19;;;;;;;2.10;1.63;;;;;;;;;;5144491;27;20121;-72
2023/07/21 07:37:46;;;;;;;2.50;1.70;;;;;;;;;;5140259;27;20385;-71
2023/07/21 07:40:14;;;;;;;2.30;1.50;;;;;;;;;;5130567;27;20155;-71
2023/07/21 07:42:41;;;;;;;1.80;1.20;;;;;;;;;;5122780;27;20043;-71
2023/07/21 07:45:10;;;;;;;2.90;1.65;;;;;;;;;;5123278;27;20456;-71
2023/07/21 07:47:37;;;;;;;1.02;0.70;;;;;;;;;;5140790;27;20050;-71
2023/07/21 07:50:05;;;;;;;0.70;0.60;;;;;;;;;;5140534;27;20397;-71
2023/07/21 07:52:32;;;;;;;2.50;1.10;;;;;;;;;;5119323;27;20165;-71
2023/07/21 07:54:59;;;;;;;1.65;0.80;;;;;;;;;;5143978;27;20042;-71
2023/07/21 07:57:27;;;;;;;3.85;1.30;;;;;;;;;;5125818;27;20054;-71
2023/07/21 07:59:55;;;;;;;1.08;0.80;;;;;;;;;;5144240;27;20050;-72
2023/07/21 08:02:23;;;;;;;1.80;0.80;;;;;;;;;;5119817;27;20167;-71
2023/07/21 08:04:51;;;;;;;0.98;0.70;;;;;;;;;;5122612;27;20047;-71
2023/07/21 08:07:18;;;;;;;0.85;0.70;;;;;;;;;;5145009;27;20039;-72
2023/07/21 08:09:45;;;;;;;1.75;0.70;;;;;;;;;;5142108;27;20055;-71
2023/07/21 08:12:13;;;;;;;2.63;0.90;;;;;;;;;;5142502;27;20047;-71
2023/07/21 08:14:40;;;;;;;0.93;0.68;;;;;;;;;;5122404;27;20058;-71
2023/07/21 08:17:08;;;;;;;2.00;1.00;;;;;;;;;;5136634;27;20062;-71
2023/07/21 08:19:37;;;;;;;2.15;1.10;;;;;;;;;;5117082;27;20138;-71
2023/07/21 08:22:06;;;;;;;1.48;0.90;;;;;;;;;;5118521;27;20057;-71
2023/07/21 08:24:33;;;;;;;2.65;1.52;;;;;;;;;;5125930;27;20055;-72
2023/07/21 08:27:02;;;;;;;2.22;1.23;;;;;;;;;;5143454;27;20046;-72
2023/07/21 08:29:30;;;;;;;3.85;1.80;;;;;;;;;;5122000;27;20054;-71
2023/07/21 08:31:57;;;;;;;2.42;1.80;;;;;;;;;;5137808;27;20039;-71
2023/07/21 08:34:24;;;;;;;2.53;1.48;;;;;;;;;;5145930;27;20047;-72
2023/07/21 08:36:53;;;;;;;3.53;1.73;;;;;;;;;;5142043;27;20050;-71
2023/07/21 08:39:20;;;;;;;2.75;2.00;;;;;;;;;;5134691;27;20035;-72
2023/07/21 08:41:50;;;;;;;3.17;1.75;;;;;;;;;;5137450;27;20039;-70
2023/07/21 08:44:19;;;;;;;2.90;1.77;;;;;;;;;;5146569;27;20473;-72
2023/07/21 08:46:47;;;;;;;4.28;1.80;;;;;;;;;;5146377;27;20039;-71
2023/07/21 08:49:17;;;;;;;2.38;1.63;;;;;;;;;;5150860;27;20035;-71
2023/07/21 08:51:44;;;;;;;4.22;1.80;;;;;;;;;;5125720;27;20073;-72
2023/07/21 08:54:13;;;;;;;2.28;1.55;;;;;;;;;;5129049;27;20049;-72
2023/07/21 08:56:40;;;;;;;1.83;0.82;;;;;;;;;;5145648;27;20055;-71
2023/07/21 08:59:08;;;;;;;2.28;1.10;;;;;;;;;;5145722;27;20099;-72
2023/07/21 09:01:35;;;;;;;3.03;1.17;;;;;;;;;;5124310;27;20059;-73
2023/07/21 09:04:02;;;;;;;2.00;1.00;;;;;;;;;;5145599;27;20049;-75
2023/07/21 09:06:35;;;;;;;2.15;1.33;;;;;;;;;;5146174;27;20121;-74
2023/07/21 09:09:02;;;;;;;1.33;1.00;;;;;;;;;;5122460;27;20126;-76
2023/07/21 09:11:37;;;;;;;2.03;1.20;;;;;;;;;;5132171;27;20058;-75
2023/07/21 09:14:04;;;;;;;1.52;1.13;;;;;;;;;;5137430;27;20057;-76
2023/07/21 09:16:34;;;;;;;2.20;0.95;;;;;;;;;;5114997;27;20141;-76
2023/07/21 09:19:01;;;;;;;2.08;1.30;;;;;;;;;;5141612;27;20089;-77
2023/07/21 09:21:30;;;;;;;2.53;1.38;;;;;;;;;;5128327;27;20098;-74
2023/07/21 09:24:02;;;;;;;1.85;1.20;;;;;;;;;;5136843;27;20046;-78
2023/07/21 09:26:31;;;;;;;3.05;1.40;;;;;;;;;;5121114;27;20062;-79
2023/07/21 09:28:58;;;;;;;2.08;1.30;;;;;;;;;;5130267;27;20051;-76
2023/07/21 09:31:29;;;;;;;3.38;1.77;;;;;;;;;;5124663;27;20481;-76
2023/07/21 09:34:05;;;;;;;2.60;1.50;;;;;;;;;;5125304;27;20103;-74
2023/07/21 09:36:32;;;;;;;2.72;1.50;;;;;;;;;;5146315;27;20134;-75
2023/07/21 09:39:02;;;;;;;4.70;2.05;;;;;;;;;;5132283;27;20051;-74
2023/07/21 09:41:32;;;;;;;3.30;2.20;;;;;;;;;;5136331;27;20099;-74
2023/07/21 09:44:00;;;;;;;5.30;2.03;;;;;;;;;;5122447;27;20069;-75
2023/07/21 09:46:27;;;;;;;2.80;1.52;;;;;;;;;;5127244;27;20053;-74
2023/07/21 09:48:55;;;;;;;1.85;1.40;;;;;;;;;;5131950;27;20047;-74
2023/07/21 09:51:22;;;;;;;3.20;1.88;;;;;;;;;;5125299;27;20545;-74
2023/07/21 09:53:52;;;;;;;3.20;2.03;;;;;;;;;;5147554;27;20061;-77
2023/07/21 09:56:20;;;;;;;4.65;2.30;;;;;;;;;;5125310;27;20046;-74
2023/07/21 09:58:52;;;;;;;3.30;2.25;;;;;;;;;;5128241;27;20065;-74
2023/07/21 10:01:19;;;;;;;3.42;2.42;;;;;;;;;;5128594;27;20049;-75
2023/07/21 10:03:46;;;;;;;3.63;2.22;;;;;;;;;;5129435;27;20051;-74
2023/07/21 10:06:15;;;;;;;4.43;2.50;;;;;;;;;;5129250;27;20058;-74
2023/07/21 10:08:43;;;;;;;4.25;1.80;;;;;;;;;;5115528;27;20058;-74
2023/07/21 10:11:10;;;;;;;2.10;1.70;;;;;;;;;;5117891;27;20043;-72
2023/07/21 10:13:41;;;;;;;4.72;1.90;;;;;;;;;;5126586;27;20055;-74
2023/07/21 10:16:10;;;;;;;3.42;1.88;;;;;;;;;;5127002;27;20146;-73
2023/07/21 10:18:37;;;;;;;1.52;1.20;;;;;;;;;;5140700;27;20405;-74
2023/07/21 10:21:05;;;;;;;1.27;0.98;;;;;;;;;;5123854;27;20098;-74
2023/07/21 10:23:34;;;;;;;1.25;0.90;;;;;;;;;;5115481;27;20092;-74
2023/07/21 10:26:02;;;;;;;2.55;1.30;;;;;;;;;;5118762;27;20081;-73
2023/07/21 10:28:33;;;;;;;4.50;1.50;;;;;;;;;;5115109;27;20413;-73
2023/07/21 10:31:15;;;;;;;2.63;1.70;;;;;;;;;;5121266;27;20055;-75
2023/07/21 10:34:02;;;;;;;3.95;1.20;;;;;;;;;;5122700;27;20093;-72
2023/07/21 10:36:39;;;;;;;2.10;1.17;;;;;;;;;;5124216;27;20395;-75
2023/07/21 10:39:10;;;;;;;2.92;1.00;;;;;;;;;;5119209;27;20043;-75
2023/07/21 10:41:38;;;;;;;2.40;1.40;;;;;;;;;;5120972;27;20086;-74
2023/07/21 10:44:07;;;;;;;2.10;1.00;;;;;;;;;;5120519;27;20615;-75
2023/07/21 10:46:37;;;;;;;1.98;1.10;;;;;;;;;;5120828;27;20052;-76
2023/07/21 10:49:06;;;;;;;4.60;1.20;;;;;;;;;;5119777;27;20077;-75
2023/07/21 10:51:33;;;;;;;2.90;1.20;;;;;;;;;;5113539;27;20383;-75
2023/07/21 10:54:00;;;;;;;3.08;1.17;;;;;;;;;;5123916;27;20104;-75
2023/07/21 10:56:28;;;;;;;5.25;1.63;;;;;;;;;;5127925;27;20047;-76
2023/07/21 10:58:55;;;;;;;3.28;1.65;;;;;;;;;;5122767;27;20046;-75
2023/07/21 11:01:23;;;;;;;3.35;1.42;;;;;;;;;;5118907;27;20386;-75
2023/07/21 11:03:51;;;;;;;4.03;1.38;;;;;;;;;;5118709;27;20076;-75
2023/07/21 11:06:20;;;;;;;3.35;1.75;;;;;;;;;;5117438;27;20071;-75
2023/07/21 11:08:47;;;;;;;3.42;1.45;;;;;;;;;;5117924;27;20051;-75
2023/07/21 11:11:14;;;;;;;2.67;1.00;;;;;;;;;;5118448;27;20047;-75
2023/07/21 11:13:41;;;;;;;3.20;1.20;;;;;;;;;;5114889;27;20047;-74
2023/07/21 11:16:10;;;;;;;5.03;1.52;;;;;;;;;;5125240;27;20252;-75
2023/07/21 11:18:41;;;;;;;4.97;1.85;;;;;;;;;;5121699;27;20494;-75
2023/07/21 11:21:09;;;;;;;4.05;1.60;;;;;;;;;;5100936;28;20092;-75
2023/07/21 11:23:37;;;;;;;7.68;1.83;;;;;;;;;;5098868;28;20043;-75
2023/07/21 11:26:09;;;;;;;3.38;1.42;;;;;;;;;;5097440;28;20044;-75
2023/07/21 11:28:37;;;;;;;6.63;1.92;;;;;;;;;;5096138;28;20242;-71
2023/07/21 11:31:11;;;;;;;2.17;1.30;;;;;;;;;;5094901;28;20044;-72
2023/07/21 11:33:46;;;;;;;2.35;1.23;;;;;;;;;;5105142;28;20123;-72
2023/07/21 11:36:14;;;;;;;3.90;1.42;;;;;;;;;;5112046;28;20047;-72
2023/07/21 11:38:43;;;;;;;1.73;1.33;;;;;;;;;;5099116;28;20040;-72
2023/07/21 11:41:10;;;;;;;2.83;1.67;;;;;;;;;;5102980;28;20127;-71
2023/07/21 11:43:48;;;;;;;3.00;1.58;;;;;;;;;;5107797;28;20052;-72
2023/07/21 11:46:23;;;;;;;3.70;1.50;;;;;;;;;;5099643;28;20058;-72
2023/07/21 11:48:50;;;;;;;4.35;1.50;;;;;;;;;;5106622;28;20047;-71
2023/07/21 11:51:17;;;;;;;4.60;1.52;;;;;;;;;;5108177;28;20053;-72
2023/07/21 11:53:47;;;;;;;2.63;1.20;;;;;;;;;;5102567;27;20623;-72
2023/07/21 11:56:15;;;;;;;2.45;1.50;;;;;;;;;;5100750;28;20112;-71
2023/07/21 11:58:42;;;;;;;4.15;1.40;;;;;;;;;;5106058;28;20073;-72
2023/07/21 12:01:10;;;;;;;2.80;1.42;;;;;;;;;;5113719;28;20134;-71
2023/07/21 12:03:38;;;;;;;3.28;1.55;;;;;;;;;;5106998;28;20086;-69
2023/07/21 12:06:09;;;;;;;4.95;1.65;;;;;;;;;;5105321;28;20072;-66
2023/07/21 12:08:36;;;;;;;4.55;1.80;;;;;;;;;;5102231;28;20047;-66
2023/07/21 12:11:05;;;;;;;2.72;1.60;;;;;;;;;;5100218;28;20040;-66
2023/07/21 12:13:32;;;;;;;2.60;1.50;;;;;;;;;;5099333;28;20438;-67
2023/07/21 12:15:59;;;;;;;4.43;1.92;;;;;;;;;;5117840;28;20048;-66
2023/07/21 12:18:27;;;;;;;2.45;1.50;;;;;;;;;;5115215;28;20483;-67
2023/07/21 12:20:54;;;;;;;4.78;1.83;;;;;;;;;;5140736;27;20106;-66
2023/07/21 12:23:21;;;;;;;3.80;1.60;;;;;;;;;;5149622;27;20681;-66
2023/07/21 12:25:49;;;;;;;4.05;1.70;;;;;;;;;;5146578;27;20425;-66
2023/07/21 12:28:17;;;;;;;4.03;2.08;;;;;;;;;;5147785;27;20042;-66
2023/07/21 12:30:45;;;;;;;2.28;1.60;;;;;;;;;;5147751;27;20055;-66
2023/07/21 12:33:12;;;;;;;2.75;1.45;;;;;;;;;;5150504;27;20046;-66
2023/07/21 12:35:39;;;;;;;1.80;1.40;;;;;;;;;;5133563;27;20510;-66
2023/07/21 12:38:07;;;;;;;2.45;1.48;;;;;;;;;;5147826;27;20118;-66
2023/07/21 12:40:34;;;;;;;3.33;1.65;;;;;;;;;;5140420;27;20043;-66
2023/07/21 12:43:02;;;;;;;3.45;1.70;;;;;;;;;;5145108;27;20043;-66
2023/07/21 12:45:30;;;;;;;3.42;1.95;;;;;;;;;;5148578;27;20051;-66
2023/07/21 12:47:58;;;;;;;2.53;1.60;;;;;;;;;;5148014;27;20046;-66
2023/07/21 12:50:25;;;;;;;3.72;2.05;;;;;;;;;;5147236;27;20043;-66
2023/07/21 12:52:53;;;;;;;3.28;1.88;;;;;;;;;;5145585;27;20584;-66
2023/07/21 12:55:20;;;;;;;3.38;1.73;;;;;;;;;;5144453;27;20043;-68
2023/07/21 12:57:47;;;;;;;2.47;1.73;;;;;;;;;;5145061;27;20055;-66
2023/07/21 13:00:16;;;;;;;2.95;1.75;;;;;;;;;;5146566;27;20043;-66
2023/07/21 13:02:44;;;;;;;3.20;1.90;;;;;;;;;;5125359;27;20055;-66
2023/07/21 13:05:12;;;;;;;2.78;1.50;;;;;;;;;;5121741;27;20095;-66
2023/07/21 13:07:40;;;;;;;3.03;1.65;;;;;;;;;;5148906;27;20091;-66
2023/07/21 13:10:07;;;;;;;2.90;1.55;;;;;;;;;;5139740;27;20489;-66
2023/07/21 13:12:35;;;;;;;3.80;1.85;;;;;;;;;;5146508;27;20520;-66
2023/07/21 13:15:02;;;;;;;2.35;1.65;;;;;;;;;;5142804;27;20040;-66
2023/07/21 13:17:30;;;;;;;2.72;1.80;;;;;;;;;;5127489;27;20093;-66
2023/07/21 13:19:58;;;;;;;2.92;1.48;;;;;;;;;;5147377;27;20054;-66
2023/07/21 13:22:26;;;;;;;3.38;1.48;;;;;;;;;;5146562;27;20058;-66
2023/07/21 13:24:53;;;;;;;2.78;1.92;;;;;;;;;;5139924;27;20073;-66
2023/07/21 13:27:20;;;;;;;4.45;1.80;;;;;;;;;;5145967;27;20652;-66
2023/07/21 13:29:47;;;;;;;3.10;1.90;;;;;;;;;;5125384;27;20047;-66
2023/07/21 13:32:15;;;;;;;4.90;1.73;;;;;;;;;;5142749;27;20047;-66
2023/07/21 13:34:42;;;;;;;3.20;1.70;;;;;;;;;;5125625;27;20111;-66
2023/07/21 13:37:11;;;;;;;2.42;1.30;;;;;;;;;;5141896;27;20493;-67
2023/07/21 13:39:38;;;;;;;2.22;1.63;;;;;;;;;;5137981;27;20433;-67
2023/07/21 13:42:06;;;;;;;3.00;1.40;;;;;;;;;;5145001;27;20035;-66
2023/07/21 13:44:33;;;;;;;5.80;2.40;;;;;;;;;;5144770;27;20062;-66
2023/07/21 13:47:00;;;;;;;3.28;1.95;;;;;;;;;;5149363;27;20077;-66
2023/07/21 13:49:29;;;;;;;7.20;3.67;;;;;;;;;;5141446;27;20762;-66
2023/07/21 13:51:56;;;;;;;6.50;3.78;;;;;;;;;;5144948;27;20039;-67
2023/07/21 13:54:25;;;;;;;5.10;3.35;;;;;;;;;;5143577;27;20051;-66
2023/07/21 13:56:53;;;;;;;5.82;3.20;;;;;;;;;;5144879;27;20050;-66
2023/07/21 13:59:20;;;;;;;5.88;3.53;;;;;;;;;;5144590;27;20049;-66
2023/07/21 14:01:47;;;;;;;4.93;3.25;;;;;;;;;;5142911;27;20427;-66
2023/07/21 14:04:16;;;;;;;7.30;3.28;;;;;;;;;;5144771;27;20072;-67
2023/07/21 14:06:43;;;;;;;6.25;3.63;;;;;;;;;;5145783;27;20100;-66
2023/07/21 14:09:11;;;;;;;6.45;3.53;;;;;;;;;;5144940;27;20055;-66
2023/07/21 14:11:39;;;;;;;8.98;4.13;;;;;;;;;;5139996;27;20058;-66
2023/07/21 14:14:07;;;;;;;6.03;3.97;;;;;;;;;;5147304;27;20078;-66
2023/07/21 14:16:34;;;;;;;7.13;4.15;;;;;;;;;;5142956;27;20424;-66
2023/07/21 14:19:04;;;;;;;10.80;4.05;;;;;;;;;;5146540;27;20066;-66
2023/07/21 14:21:33;;;;;;;12.60;7.72;;;;;;;;;;5140677;27;20061;-66
2023/07/21 14:24:03;;;;;;;6.65;4.60;;;;;;;;;;5145021;27;20477;-66
2023/07/21 14:26:30;;;;;;;22.38;15.02;;;;;;;;;;5144835;27;20051;-67
2023/07/21 14:28:59;;;;;;;5.93;4.55;;;;;;;;;;5146488;27;20053;-66
2023/07/21 14:31:27;;;;;;;6.13;3.92;;;;;;;;;;5140593;27;20074;-67
2023/07/21 14:33:54;;;;;;;6.20;3.05;;;;;;;;;;5146489;27;20106;-67
2023/07/21 14:36:21;;;;;;;4.63;3.38;;;;;;;;;;5139918;27;20071;-66
2023/07/21 14:38:49;;;;;;;5.22;2.80;;;;;;;;;;5141575;27;20125;-67
2023/07/21 14:41:17;;;;;;;6.28;2.92;;;;;;;;;;5145143;27;20173;-67
2023/07/21 14:43:44;;;;;;;5.45;3.05;;;;;;;;;;5143341;27;20050;-67
2023/07/21 14:46:13;;;;;;;3.63;2.45;;;;;;;;;;5144450;27;20134;-67
2023/07/21 14:48:40;;;;;;;3.53;2.38;;;;;;;;;;5128311;27;20424;-67